Time;durP1;ratioP1;P1;durP2;ratioP2;P2;SDS_P1;SDS_P2;PMS_P1;PMS_P2;Temp;Humidity;BMP_temperature;BMP_pressure;BME280_temperature;BME280_humidity;BME280_pressure;Samples;Min_cycle;Max_cycle;Signal;HPM_P1;HPM_P2
2022/03/22 00:02:27;0.00;0.00;0.62;0.00;0.00;0.62;5.43;4.93;;;25.90;19.90;;;;;;2232119;62;20395;-50
2022/03/22 00:05:12;0.00;0.00;0.62;0.00;0.00;0.62;4.73;4.20;;;25.90;19.80;;;;;;2231605;62;20424;-50
2022/03/22 00:07:57;0.00;0.00;0.62;0.00;0.00;0.62;5.70;5.20;;;25.90;19.60;;;;;;2231977;62;20424;-54
2022/03/22 00:10:42;0.00;0.00;0.62;0.00;0.00;0.62;6.80;5.40;;;25.90;19.50;;;;;;2231594;62;20375;-52
2022/03/22 00:13:28;0.00;0.00;0.62;0.00;0.00;0.62;6.20;5.30;;;25.80;19.40;;;;;;2231826;62;20851;-52
2022/03/22 00:16:13;0.00;0.00;0.62;0.00;0.00;0.62;6.80;5.50;;;25.80;19.30;;;;;;2231902;62;20367;-55
2022/03/22 00:18:59;0.00;0.00;0.62;0.00;0.00;0.62;7.00;5.90;;;25.80;19.30;;;;;;2231221;62;20424;-55
2022/03/22 00:21:43;0.00;0.00;0.62;0.00;0.00;0.62;5.93;5.33;;;25.80;19.20;;;;;;2231850;62;20925;-54
2022/03/22 00:24:28;0.00;0.00;0.62;0.00;0.00;0.62;7.20;6.50;;;25.80;19.20;;;;;;2231832;62;20901;-52
2022/03/22 00:27:13;0.00;0.00;0.62;0.00;0.00;0.62;7.10;6.03;;;25.70;19.10;;;;;;2231293;62;20497;-51
2022/03/22 00:29:58;0.00;0.00;0.62;0.00;0.00;0.62;7.20;6.50;;;25.70;19.00;;;;;;2231657;62;20427;-50
2022/03/22 00:32:43;0.00;0.00;0.62;0.00;0.00;0.62;7.17;6.47;;;25.70;19.00;;;;;;2231771;62;20800;-51
2022/03/22 00:35:36;0.00;0.00;0.62;0.00;0.00;0.62;8.20;7.40;;;25.70;19.00;;;;;;2231471;62;20462;-51
2022/03/22 00:38:21;0.00;0.00;0.62;0.00;0.00;0.62;7.23;6.63;;;25.70;19.00;;;;;;2231730;62;20423;-50
2022/03/22 00:41:06;0.00;0.00;0.62;0.00;0.00;0.62;7.73;6.83;;;25.70;18.90;;;;;;2231245;62;20394;-50
2022/03/22 00:43:51;0.00;0.00;0.62;0.00;0.00;0.62;7.67;7.00;;;25.60;18.80;;;;;;2231806;62;20364;-50
2022/03/22 00:46:36;0.00;0.00;0.62;0.00;0.00;0.62;7.23;6.53;;;25.60;18.80;;;;;;2231234;62;20774;-49
2022/03/22 00:49:21;0.00;0.00;0.62;0.00;0.00;0.62;7.40;6.70;;;25.60;18.80;;;;;;2233510;62;20451;-49
2022/03/22 00:52:08;0.00;0.00;0.62;0.00;0.00;0.62;7.20;6.50;;;25.50;18.80;;;;;;2231711;62;20946;-51
2022/03/22 00:54:53;0.00;0.00;0.62;0.00;0.00;0.62;8.00;7.30;;;25.50;18.80;;;;;;2231681;62;20407;-49
2022/03/22 00:57:39;0.00;0.00;0.62;0.00;0.00;0.62;7.47;6.70;;;25.50;18.70;;;;;;2231431;62;20500;-52
2022/03/22 01:00:26;0.00;0.00;0.62;0.00;0.00;0.62;8.43;7.60;;;25.50;18.70;;;;;;2231295;62;20418;-52
2022/03/22 01:03:11;0.00;0.00;0.62;0.00;0.00;0.62;9.03;8.07;;;25.40;18.70;;;;;;2231836;62;20623;-54
2022/03/22 01:05:58;0.00;0.00;0.62;0.00;0.00;0.62;8.13;7.27;;;25.40;18.60;;;;;;2231934;62;20367;-50
2022/03/22 01:08:46;0.00;0.00;0.62;0.00;0.00;0.62;8.10;7.40;;;25.40;18.60;;;;;;2231433;62;20382;-52
2022/03/22 01:11:30;0.00;0.00;0.62;0.00;0.00;0.62;7.93;7.23;;;25.30;18.60;;;;;;2231344;62;20928;-49
2022/03/22 01:14:15;0.00;0.00;0.62;0.00;0.00;0.62;8.70;7.90;;;25.30;18.50;;;;;;2231602;62;20395;-53
2022/03/22 01:16:59;0.00;0.00;0.62;0.00;0.00;0.62;9.43;8.50;;;25.30;18.50;;;;;;2231818;62;20941;-49
2022/03/22 01:19:44;0.00;0.00;0.62;0.00;0.00;0.62;8.60;7.77;;;25.20;18.50;;;;;;2231410;62;20399;-49
2022/03/22 01:22:29;0.00;0.00;0.62;0.00;0.00;0.62;8.07;7.30;;;25.20;18.50;;;;;;2231313;62;20528;-49
2022/03/22 01:25:19;0.00;0.00;0.62;0.00;0.00;0.62;10.93;8.40;;;25.20;18.50;;;;;;2231746;62;20368;-52
2022/03/22 01:28:07;0.00;0.00;0.62;0.00;0.00;0.62;8.40;7.60;;;25.10;18.40;;;;;;2231897;62;20407;-49
2022/03/22 01:30:52;0.00;0.00;0.62;0.00;0.00;0.62;8.00;7.30;;;25.20;18.50;;;;;;2231272;62;20439;-49
2022/03/22 01:33:37;0.00;0.00;0.62;0.00;0.00;0.62;8.23;7.40;;;25.10;18.40;;;;;;2231305;62;20508;-51
2022/03/22 01:36:22;0.00;0.00;0.62;0.00;0.00;0.62;8.10;7.40;;;25.10;18.40;;;;;;2231550;62;20419;-50
2022/03/22 01:39:06;0.00;0.00;0.62;0.00;0.00;0.62;7.70;7.00;;;25.10;18.50;;;;;;2231596;62;20936;-49
2022/03/22 01:41:52;0.00;0.00;0.62;0.00;0.00;0.62;8.70;8.00;;;25.00;18.50;;;;;;2231325;62;20396;-53
2022/03/22 01:44:37;0.00;0.00;0.62;0.00;0.00;0.62;8.53;7.73;;;25.00;18.40;;;;;;2231470;62;20427;-52
2022/03/22 01:47:25;0.00;0.00;0.62;0.00;0.00;0.62;8.17;7.47;;;25.00;18.40;;;;;;2231721;62;20788;-49
2022/03/22 01:50:14;0.00;0.00;0.62;0.00;0.00;0.62;8.47;7.77;;;25.00;18.50;;;;;;2231671;62;20375;-50
2022/03/22 01:53:09;0.00;0.00;0.62;0.00;0.00;0.62;8.17;7.37;;;24.90;18.40;;;;;;2231558;62;20467;-50
2022/03/22 01:55:37;0.00;0.00;0.62;0.00;0.00;0.62;9.03;8.13;;;24.90;18.40;;;;;;2231481;62;20795;-51
2022/03/22 01:58:24;0.00;0.00;0.62;0.00;0.00;0.62;9.13;8.33;;;24.90;18.40;;;;;;2231586;62;21103;-49
2022/03/22 02:07:17;0.00;0.00;0.62;0.00;0.00;0.62;8.40;7.60;;;24.80;18.30;;;;;;2231208;62;20419;-51
2022/03/22 02:10:03;0.00;0.00;0.62;0.00;0.00;0.62;8.13;7.10;;;24.70;18.30;;;;;;2231408;62;20387;-48
2022/03/22 02:12:48;0.00;0.00;0.62;0.00;0.00;0.62;9.40;8.40;;;24.70;18.30;;;;;;2232491;62;20418;-51
2022/03/22 02:15:35;0.00;0.00;0.62;0.00;0.00;0.62;8.43;7.73;;;24.70;18.30;;;;;;2232109;62;20367;-48
2022/03/22 02:18:20;0.00;0.00;0.62;0.00;0.00;0.62;9.20;7.80;;;24.70;18.30;;;;;;2231784;62;20414;-48
2022/03/22 02:21:06;0.00;0.00;0.62;0.00;0.00;0.62;7.93;7.23;;;24.70;18.30;;;;;;2231989;62;20395;-50
2022/03/22 02:23:55;0.00;0.00;0.62;0.00;0.00;0.62;9.50;8.67;;;24.60;18.20;;;;;;2232213;62;20374;-50
2022/03/22 02:26:39;0.00;0.00;0.62;0.00;0.00;0.62;8.30;7.50;;;24.60;18.20;;;;;;2232193;62;20436;-49
2022/03/22 02:29:24;0.00;0.00;0.62;0.00;0.00;0.62;8.87;7.97;;;24.60;18.30;;;;;;2232014;62;20407;-52
2022/03/22 02:32:09;0.00;0.00;0.62;0.00;0.00;0.62;8.83;7.93;;;24.60;18.20;;;;;;2231645;62;20391;-50
2022/03/22 02:34:54;0.00;0.00;0.62;0.00;0.00;0.62;8.90;8.00;;;24.60;18.20;;;;;;2232524;62;20767;-51
2022/03/22 02:37:38;0.00;0.00;0.62;0.00;0.00;0.62;8.10;7.33;;;24.60;18.20;;;;;;2231955;62;20807;-50
2022/03/22 02:40:26;0.00;0.00;0.62;0.00;0.00;0.62;8.30;7.50;;;24.50;18.10;;;;;;2231503;62;20371;-51
2022/03/22 02:43:10;0.00;0.00;0.62;0.00;0.00;0.62;8.17;7.37;;;24.50;18.10;;;;;;2232145;62;20959;-50
2022/03/22 02:45:55;0.00;0.00;0.62;0.00;0.00;0.62;9.60;7.97;;;24.50;18.10;;;;;;2232217;62;20757;-50
2022/03/22 02:48:40;0.00;0.00;0.62;0.00;0.00;0.62;9.43;8.40;;;24.50;18.10;;;;;;2231998;62;20372;-53
2022/03/22 02:51:25;0.00;0.00;0.62;0.00;0.00;0.62;8.60;7.57;;;24.50;18.10;;;;;;2232008;62;20967;-52
2022/03/22 02:54:09;0.00;0.00;0.62;0.00;0.00;0.62;9.13;7.70;;;24.50;18.20;;;;;;2232072;62;20370;-51
2022/03/22 02:56:55;0.00;0.00;0.62;0.00;0.00;0.62;8.47;7.67;;;24.40;18.10;;;;;;2232476;62;20391;-51
2022/03/22 02:59:39;0.00;0.00;0.62;0.00;0.00;0.62;9.47;8.50;;;24.40;18.10;;;;;;2231251;62;20383;-51
2022/03/22 03:02:25;0.00;0.00;0.62;0.00;0.00;0.62;8.80;8.00;;;24.40;18.00;;;;;;2231939;62;20458;-52
2022/03/22 03:05:10;0.00;0.00;0.62;0.00;0.00;0.62;8.57;7.67;;;24.30;18.00;;;;;;2232206;62;20367;-51
2022/03/22 03:07:55;0.00;0.00;0.62;0.00;0.00;0.62;8.80;7.90;;;24.30;18.00;;;;;;2232083;62;20363;-51
2022/03/22 03:10:40;0.00;0.00;0.62;0.00;0.00;0.62;8.00;7.27;;;24.30;18.00;;;;;;2231801;62;20375;-49
2022/03/22 03:14:38;0.00;0.00;0.62;0.00;0.00;0.62;7.60;6.90;;;24.30;18.00;;;;;;2231788;62;20438;-48
2022/03/22 03:16:30;0.00;0.00;0.62;0.00;0.00;0.62;7.60;6.90;;;24.30;18.00;;;;;;2230973;62;20384;-50
2022/03/22 03:19:15;0.00;0.00;0.62;0.00;0.00;0.62;8.20;7.50;;;24.30;18.00;;;;;;2228256;62;20368;-54
2022/03/22 03:22:00;0.00;0.00;0.62;0.00;0.00;0.62;8.43;7.63;;;24.20;17.90;;;;;;2228053;62;20412;-53
2022/03/22 03:24:44;0.00;0.00;0.62;0.00;0.00;0.62;7.73;7.00;;;24.20;18.00;;;;;;2228017;62;20909;-53
2022/03/22 03:27:29;0.00;0.00;0.62;0.00;0.00;0.62;8.37;7.13;;;24.20;18.00;;;;;;2228046;62;20433;-53
2022/03/22 03:30:15;0.00;0.00;0.62;0.00;0.00;0.62;8.00;7.23;;;24.20;18.00;;;;;;2227949;62;20368;-53
2022/03/22 03:32:59;0.00;0.00;0.62;0.00;0.00;0.62;7.77;7.00;;;24.10;17.90;;;;;;2227824;62;20431;-52
2022/03/22 03:35:45;0.00;0.00;0.62;0.00;0.00;0.62;8.00;7.20;;;24.10;17.90;;;;;;2228069;62;20395;-49
2022/03/22 03:38:29;0.00;0.00;0.62;0.00;0.00;0.62;8.20;7.40;;;24.10;18.00;;;;;;2228088;62;20392;-52
2022/03/22 03:47:23;0.00;0.00;0.62;0.00;0.00;0.62;8.03;7.33;;;24.10;18.50;;;;;;2227748;62;20356;-54
2022/03/22 03:50:09;0.00;0.00;0.62;0.00;0.00;0.62;7.80;7.00;;;24.00;17.80;;;;;;2227859;62;20978;-53
2022/03/22 03:52:54;0.00;0.00;0.62;0.00;0.00;0.62;7.80;7.10;;;24.00;17.90;;;;;;2228060;62;20479;-53
2022/03/22 03:55:39;0.00;0.00;0.62;0.00;0.00;0.62;7.57;6.93;;;24.00;17.90;;;;;;2227856;62;20372;-55
2022/03/22 03:58:24;0.00;0.00;0.62;0.00;0.00;0.62;8.77;7.93;;;24.00;17.90;;;;;;2227728;62;20471;-52
2022/03/22 04:01:09;0.00;0.00;0.62;0.00;0.00;0.62;7.73;6.97;;;24.00;17.90;;;;;;2227676;62;20868;-53
2022/03/22 04:03:55;0.00;0.00;0.62;0.00;0.00;0.62;7.47;6.80;;;24.00;17.90;;;;;;2230358;62;20372;-53
2022/03/22 04:06:39;0.00;0.00;0.62;0.00;0.00;0.62;8.37;7.63;;;23.90;17.90;;;;;;2228363;62;20380;-53
2022/03/22 04:09:24;0.00;0.00;0.62;0.00;0.00;0.62;8.33;7.50;;;23.90;17.90;;;;;;2229888;62;20425;-54
2022/03/22 04:12:09;0.00;0.00;0.62;0.00;0.00;0.62;7.87;7.17;;;23.90;17.90;;;;;;2227745;62;20929;-55
2022/03/22 04:14:54;0.00;0.00;0.62;0.00;0.00;0.62;8.80;8.00;;;23.90;17.90;;;;;;2228014;62;20368;-53
2022/03/22 04:17:38;0.00;0.00;0.62;0.00;0.00;0.62;8.47;7.60;;;23.80;17.80;;;;;;2227916;62;20429;-54
2022/03/22 04:20:24;0.00;0.00;0.62;0.00;0.00;0.62;7.90;7.10;;;23.80;17.80;;;;;;2227599;62;20913;-56
2022/03/22 04:23:08;0.00;0.00;0.62;0.00;0.00;0.62;7.80;7.00;;;23.80;17.80;;;;;;2227661;62;20396;-54
2022/03/22 04:25:53;0.00;0.00;0.62;0.00;0.00;0.62;8.07;7.27;;;23.80;17.90;;;;;;2228123;62;20372;-55
2022/03/22 04:34:47;0.00;0.00;0.62;0.00;0.00;0.62;7.13;6.43;;;23.70;17.80;;;;;;2227972;62;20793;-53
2022/03/22 04:37:33;0.00;0.00;0.62;0.00;0.00;0.62;8.50;7.63;;;23.70;17.80;;;;;;2227787;62;20461;-55
2022/03/22 04:40:17;0.00;0.00;0.62;0.00;0.00;0.62;9.63;7.20;;;23.70;17.90;;;;;;2227883;62;20419;-54
2022/03/22 04:43:03;0.00;0.00;0.62;0.00;0.00;0.62;8.47;7.67;;;23.70;17.90;;;;;;2229780;62;20414;-54
2022/03/22 04:45:49;0.00;0.00;0.62;0.00;0.00;0.62;8.30;7.50;;;23.70;17.90;;;;;;2227753;62;20375;-54
2022/03/22 04:48:34;0.00;0.00;0.62;0.00;0.00;0.62;7.83;7.10;;;23.70;17.80;;;;;;2228110;62;20416;-51
2022/03/22 04:57:27;0.00;0.00;0.62;0.00;0.00;0.62;8.87;6.40;;;23.60;17.80;;;;;;2227652;62;20464;-54
2022/03/22 05:00:13;0.00;0.00;0.62;0.00;0.00;0.62;8.67;7.80;;;23.60;17.80;;;;;;2227416;62;20784;-54
2022/03/22 05:02:57;0.00;0.00;0.62;0.00;0.00;0.62;7.40;6.70;;;23.60;17.80;;;;;;2228112;62;20396;-54
2022/03/22 05:08:45;0.00;0.00;0.62;0.00;0.00;0.62;7.73;7.03;;;23.50;17.80;;;;;;2227748;62;20945;-52
2022/03/22 05:11:31;0.00;0.00;0.62;0.00;0.00;0.62;7.70;6.97;;;23.50;17.70;;;;;;2227754;62;20453;-52
2022/03/22 05:14:16;0.00;0.00;0.62;0.00;0.00;0.62;9.73;8.70;;;23.50;17.60;;;;;;2227965;62;20384;-51
2022/03/22 05:17:00;0.00;0.00;0.62;0.00;0.00;0.62;8.83;8.03;;;23.50;17.60;;;;;;2227631;62;20509;-54
2022/03/22 05:19:44;0.00;0.00;0.62;0.00;0.00;0.62;8.90;8.10;;;23.40;17.50;;;;;;2230090;62;20469;-51
2022/03/22 05:22:29;0.00;0.00;0.62;0.00;0.00;0.62;12.83;8.40;;;23.40;17.50;;;;;;2231141;62;20427;-50
2022/03/22 05:25:14;0.00;0.00;0.62;0.00;0.00;0.62;8.83;8.03;;;23.40;17.50;;;;;;2231769;62;20371;-52
2022/03/22 05:28:04;0.00;0.00;0.62;0.00;0.00;0.62;8.63;7.70;;;23.40;17.50;;;;;;2231659;62;20851;-49
2022/03/22 05:30:49;0.00;0.00;0.62;0.00;0.00;0.62;8.70;7.87;;;23.40;17.50;;;;;;2231079;62;20912;-50
2022/03/22 05:33:34;0.00;0.00;0.62;0.00;0.00;0.62;7.73;7.03;;;23.30;17.40;;;;;;2231312;62;20371;-51
2022/03/22 05:36:18;0.00;0.00;0.62;0.00;0.00;0.62;8.50;7.70;;;23.30;17.50;;;;;;2231938;62;20371;-48
2022/03/22 05:39:03;0.00;0.00;0.62;0.00;0.00;0.62;9.27;7.90;;;23.30;17.50;;;;;;2231311;62;20398;-51
2022/03/22 05:41:47;0.00;0.00;0.62;0.00;0.00;0.62;7.10;6.40;;;23.20;17.40;;;;;;2231612;62;20475;-50
2022/03/22 05:44:35;0.00;0.00;0.62;0.00;0.00;0.62;8.37;7.57;;;23.20;17.40;;;;;;2231339;62;20371;-50
2022/03/22 05:47:20;0.00;0.00;0.62;0.00;0.00;0.62;8.80;7.90;;;23.20;17.40;;;;;;2231894;62;20371;-49
2022/03/22 05:50:06;0.00;0.00;0.62;0.00;0.00;0.62;7.63;6.90;;;23.10;17.40;;;;;;2230630;62;20921;-54
2022/03/22 05:52:51;0.00;0.00;0.62;0.00;0.00;0.62;9.43;8.50;;;23.10;17.40;;;;;;2231310;62;21053;-54
2022/03/22 05:55:36;0.00;0.00;0.62;0.00;0.00;0.62;7.83;7.13;;;23.10;17.40;;;;;;2231620;62;20370;-55
2022/03/22 05:58:20;0.00;0.00;0.62;0.00;0.00;0.62;7.83;7.13;;;23.10;17.40;;;;;;2231825;62;20439;-52
2022/03/22 06:01:06;0.00;0.00;0.62;0.00;0.00;0.62;7.70;6.57;;;23.00;17.90;;;;;;2231052;62;20375;-51
2022/03/22 06:03:51;0.00;0.00;0.62;0.00;0.00;0.62;7.33;6.60;;;23.10;17.60;;;;;;2231544;62;20427;-53
2022/03/22 06:06:35;0.00;0.00;0.62;0.00;0.00;0.62;7.10;6.40;;;23.00;17.60;;;;;;2231731;62;20371;-53
2022/03/22 06:09:20;0.00;0.00;0.62;0.00;0.00;0.62;6.60;5.80;;;23.00;17.70;;;;;;2231839;62;20368;-54
2022/03/22 06:12:06;0.00;0.00;0.62;0.00;0.00;0.62;6.27;5.57;;;23.00;17.80;;;;;;2231391;62;20428;-48
2022/03/22 06:15:14;0.00;0.00;0.62;0.00;0.00;0.62;6.43;5.77;;;23.10;17.90;;;;;;2231305;62;20429;-49
2022/03/22 06:17:59;0.00;0.00;0.62;0.00;0.00;0.62;6.53;5.87;;;23.00;17.90;;;;;;2231327;62;20403;-49
2022/03/22 06:20:44;0.00;0.00;0.62;0.00;0.00;0.62;6.27;5.67;;;23.10;18.00;;;;;;2231358;62;20904;-53
2022/03/22 06:23:29;0.00;0.00;0.62;0.00;0.00;0.62;5.63;5.13;;;23.10;18.00;;;;;;2231609;62;20823;-49
2022/03/22 06:26:14;0.00;0.00;0.62;0.00;0.00;0.62;5.67;5.07;;;23.10;18.00;;;;;;2621128;46;20431;-53
2022/03/22 06:29:00;0.00;0.00;0.62;0.00;0.00;0.62;6.33;5.73;;;23.10;18.10;;;;;;2227389;62;20364;-51
2022/03/22 06:31:44;0.00;0.00;0.62;0.00;0.00;0.62;5.13;4.60;;;23.10;18.10;;;;;;2227864;62;20388;-51
2022/03/22 06:34:32;0.00;0.00;0.62;0.00;0.00;0.62;5.47;4.97;;;23.10;18.10;;;;;;2227582;62;20941;-49
2022/03/22 06:37:16;0.00;0.00;0.62;0.00;0.00;0.62;4.87;4.43;;;23.10;18.10;;;;;;2227788;62;20415;-52
2022/03/22 06:40:01;0.00;0.00;0.62;0.00;0.00;0.62;5.67;5.17;;;23.10;18.10;;;;;;2227307;62;20409;-51
2022/03/22 06:42:47;0.00;0.00;0.62;0.00;0.00;0.62;5.60;5.10;;;23.10;18.10;;;;;;2227509;62;20842;-52
2022/03/22 06:45:31;0.00;0.00;0.62;0.00;0.00;0.62;5.10;4.60;;;23.10;18.20;;;;;;2227388;62;20954;-49
2022/03/22 06:48:16;0.00;0.00;0.62;0.00;0.00;0.62;5.30;4.80;;;23.10;18.20;;;;;;2227531;62;20375;-50
2022/03/22 06:51:03;0.00;0.00;0.62;0.00;0.00;0.62;4.83;4.33;;;23.10;18.20;;;;;;2227863;62;20391;-54
2022/03/22 06:53:47;0.00;0.00;0.62;0.00;0.00;0.62;4.73;4.33;;;23.10;18.30;;;;;;2228137;62;20472;-49
2022/03/22 06:56:32;0.00;0.00;0.62;0.00;0.00;0.62;4.80;4.37;;;23.10;18.30;;;;;;2227798;62;20371;-49
2022/03/22 06:59:16;0.00;0.00;0.62;0.00;0.00;0.62;5.50;4.80;;;23.10;18.30;;;;;;2227727;62;20396;-48
2022/03/22 07:02:01;0.00;0.00;0.62;0.00;0.00;0.62;5.60;4.43;;;23.10;18.30;;;;;;2227981;62;20415;-52
2022/03/22 07:04:46;0.00;0.00;0.62;0.00;0.00;0.62;4.87;4.40;;;23.20;18.30;;;;;;2228295;62;20372;-49
2022/03/22 07:07:32;0.00;0.00;0.62;0.00;0.00;0.62;5.10;4.60;;;23.20;18.30;;;;;;2228016;62;20364;-52
2022/03/22 07:10:19;0.00;0.00;0.62;0.00;0.00;0.62;4.70;4.20;;;23.20;18.40;;;;;;2227778;62;20472;-49
2022/03/22 07:13:05;0.00;0.00;0.62;0.00;0.00;0.62;5.10;4.60;;;23.20;18.40;;;;;;2228109;62;20448;-53
2022/03/22 07:15:50;0.00;0.00;0.62;0.00;0.00;0.62;4.70;4.10;;;23.20;18.90;;;;;;2228397;62;20615;-52
2022/03/22 07:18:34;0.00;0.00;0.62;0.00;0.00;0.62;4.47;3.87;;;23.20;18.40;;;;;;2227770;62;20448;-55
2022/03/22 07:21:19;0.00;0.00;0.62;0.00;0.00;0.62;4.40;4.00;;;23.20;18.40;;;;;;2227840;62;20483;-48
2022/03/22 07:24:06;0.00;0.00;0.62;0.00;0.00;0.62;4.90;4.43;;;23.20;18.40;;;;;;2228078;62;20368;-48
2022/03/22 07:26:50;0.00;0.00;0.62;0.00;0.00;0.62;4.07;3.67;;;23.20;18.40;;;;;;2228258;62;20419;-49
2022/03/22 07:29:35;0.00;0.00;0.62;0.00;0.00;0.62;4.70;4.13;;;23.30;18.50;;;;;;2227803;62;20363;-48
2022/03/22 07:32:19;0.00;0.00;0.62;0.00;0.00;0.62;3.73;3.43;;;23.30;18.50;;;;;;2227839;62;20817;-49
2022/03/22 07:35:07;0.00;0.00;0.62;0.00;0.00;0.62;4.40;4.00;;;23.30;18.50;;;;;;2228149;62;20417;-51
2022/03/22 07:37:52;0.00;0.00;0.62;0.00;0.00;0.62;4.53;3.90;;;23.30;18.50;;;;;;2227974;62;20388;-51
2022/03/22 07:40:39;0.00;0.00;0.62;0.00;0.00;0.62;3.90;3.30;;;23.30;18.50;;;;;;2227085;62;20473;-49
2022/03/22 07:43:24;0.00;0.00;0.62;0.00;0.00;0.62;3.77;3.37;;;23.30;18.50;;;;;;2227416;62;20372;-49
2022/03/22 07:46:09;0.00;0.00;0.62;0.00;0.00;0.62;4.00;3.60;;;23.30;18.50;;;;;;2228259;62;20425;-49
2022/03/22 07:48:54;0.00;0.00;0.62;0.00;0.00;0.62;3.73;3.43;;;23.30;18.50;;;;;;2228118;62;20488;-49
2022/03/22 07:54:43;0.00;0.00;0.62;0.00;0.00;0.62;6.03;3.67;;;23.40;18.60;;;;;;2227915;62;20773;-49
2022/03/22 07:57:29;0.00;0.00;0.62;0.00;0.00;0.62;3.97;3.53;;;23.40;18.60;;;;;;2231085;62;20399;-50
2022/03/22 08:00:15;0.00;0.00;0.62;0.00;0.00;0.62;3.50;3.20;;;23.40;18.60;;;;;;2232191;62;20813;-53
2022/03/22 08:03:03;0.00;0.00;0.62;0.00;0.00;0.62;3.53;3.23;;;23.40;18.70;;;;;;2231738;62;20452;-48
2022/03/22 08:05:48;0.00;0.00;0.62;0.00;0.00;0.62;4.10;3.60;;;23.40;18.70;;;;;;2231644;62;20367;-55
2022/03/22 08:08:33;0.00;0.00;0.62;0.00;0.00;0.62;3.30;3.00;;;23.40;18.70;;;;;;2231756;62;20375;-53
2022/03/22 08:11:18;0.00;0.00;0.62;0.00;0.00;0.62;3.63;3.33;;;23.40;18.70;;;;;;2231936;62;20395;-52
2022/03/22 08:14:04;0.00;0.00;0.62;0.00;0.00;0.62;3.60;3.20;;;23.50;18.70;;;;;;2231454;62;20472;-51
2022/03/22 08:16:48;0.00;0.00;0.62;0.00;0.00;0.62;3.70;3.40;;;23.50;18.70;;;;;;2232001;62;20419;-53
2022/03/22 08:19:33;0.00;0.00;0.62;0.00;0.00;0.62;3.20;2.90;;;23.50;18.70;;;;;;2231442;62;20443;-53
2022/03/22 08:22:18;0.00;0.00;0.62;0.00;0.00;0.62;3.57;3.27;;;23.50;18.70;;;;;;2231852;62;20398;-56
2022/03/22 08:25:03;0.00;0.00;0.62;0.00;0.00;0.62;3.50;3.20;;;23.50;18.70;;;;;;2231617;62;20900;-52
2022/03/22 08:27:47;0.00;0.00;0.62;0.00;0.00;0.62;3.33;3.03;;;23.50;18.70;;;;;;2233976;62;20499;-52
2022/03/22 08:30:35;0.00;0.00;0.62;0.00;0.00;0.62;3.83;3.13;;;23.50;18.70;;;;;;2231707;62;20870;-55
2022/03/22 08:33:19;0.00;0.00;0.62;0.00;0.00;0.62;3.80;3.37;;;23.50;18.80;;;;;;2231738;62;20371;-52
2022/03/22 08:36:05;0.00;0.00;0.62;0.00;0.00;0.62;4.17;3.10;;;23.60;18.80;;;;;;2231520;62;20366;-55
2022/03/22 08:38:49;0.00;0.00;0.62;0.00;0.00;0.62;3.80;3.00;;;23.60;18.80;;;;;;2231456;62;20391;-54
2022/03/22 08:41:34;0.00;0.00;0.62;0.00;0.00;0.62;3.50;3.20;;;23.60;18.80;;;;;;2231711;62;20390;-56
2022/03/22 08:44:20;0.00;0.00;0.62;0.00;0.00;0.62;3.00;2.70;;;23.60;18.90;;;;;;2231874;62;20769;-57
2022/03/22 08:47:07;0.00;0.00;0.62;0.00;0.00;0.62;3.47;3.10;;;23.60;18.80;;;;;;2231312;62;20423;-52
2022/03/22 08:49:52;0.00;0.00;0.62;0.00;0.00;0.62;2.80;2.40;;;23.60;18.90;;;;;;2231532;62;20798;-54
2022/03/22 08:52:38;0.00;0.00;0.62;0.00;0.00;0.62;3.07;2.77;;;23.60;18.90;;;;;;2231925;62;20406;-54
2022/03/22 08:55:24;0.00;0.00;0.62;0.00;0.00;0.62;3.07;2.60;;;23.60;18.90;;;;;;2231938;62;20371;-52
2022/03/22 08:58:09;0.00;0.00;0.62;0.00;0.00;0.62;3.20;2.90;;;23.70;18.90;;;;;;2231501;62;20395;-55
2022/03/22 09:00:54;0.00;0.00;0.62;0.00;0.00;0.62;3.60;2.50;;;23.70;19.00;;;;;;2231585;62;20415;-54
2022/03/22 09:03:39;0.00;0.00;0.62;0.00;0.00;0.62;3.33;3.00;;;23.70;19.00;;;;;;2231888;62;20515;-54
2022/03/22 09:06:24;0.00;0.00;0.62;0.00;0.00;0.62;3.53;3.23;;;23.70;19.00;;;;;;2231808;62;20380;-53
2022/03/22 09:09:10;0.00;0.00;0.62;0.00;0.00;0.62;3.40;3.10;;;23.70;19.00;;;;;;2231233;62;20371;-53
2022/03/22 09:11:54;0.00;0.00;0.62;0.00;0.00;0.62;3.40;3.10;;;23.70;19.00;;;;;;2231528;62;20526;-53
2022/03/22 09:14:39;0.00;0.00;0.62;0.00;0.00;0.62;3.30;3.00;;;23.70;19.00;;;;;;2231836;62;20370;-57
2022/03/22 09:17:23;0.00;0.00;0.62;0.00;0.00;0.62;2.97;2.67;;;23.80;19.10;;;;;;2593426;46;20371;-55
2022/03/22 09:20:13;0.00;0.00;0.62;0.00;0.00;0.62;3.10;2.80;;;23.80;19.10;;;;;;2231208;62;20411;-53
2022/03/22 09:22:59;0.00;0.00;0.62;0.00;0.00;0.62;2.73;2.50;;;23.80;19.10;;;;;;2231573;62;20395;-52
2022/03/22 09:25:44;0.00;0.00;0.62;0.00;0.00;0.62;3.00;2.23;;;23.80;19.10;;;;;;2231675;62;20960;-54
2022/03/22 09:28:29;0.00;0.00;0.62;0.00;0.00;0.62;3.47;3.17;;;23.80;19.10;;;;;;2231788;62;20424;-54
2022/03/22 09:31:13;0.00;0.00;0.62;0.00;0.00;0.62;3.40;3.10;;;23.90;19.20;;;;;;2231322;62;20992;-53
2022/03/22 09:33:58;0.00;0.00;0.62;0.00;0.00;0.62;2.70;2.43;;;23.90;19.20;;;;;;2231457;62;20379;-54
2022/03/22 09:36:44;0.00;0.00;0.62;0.00;0.00;0.62;2.87;2.40;;;23.90;19.20;;;;;;2231901;62;20933;-51
2022/03/22 09:39:28;0.00;0.00;0.62;0.00;0.00;0.62;3.43;2.80;;;23.90;19.30;;;;;;2231165;62;20583;-54
2022/03/22 09:42:12;0.00;0.00;0.62;0.00;0.00;0.62;3.20;2.90;;;23.90;19.30;;;;;;2231336;62;20506;-53
2022/03/22 09:45:00;0.00;0.00;0.62;0.00;0.00;0.62;3.33;3.03;;;24.00;19.40;;;;;;2231514;62;20427;-53
2022/03/22 09:47:45;0.00;0.00;0.62;0.00;0.00;0.62;3.10;2.77;;;24.00;19.40;;;;;;2231571;62;20357;-54
2022/03/22 09:53:35;0.00;0.00;0.62;0.00;0.00;0.62;2.63;2.27;;;24.00;19.40;;;;;;2231492;62;20396;-55
2022/03/22 09:56:20;0.00;0.00;0.62;0.00;0.00;0.62;3.13;2.43;;;24.00;19.40;;;;;;2231708;62;20986;-56
2022/03/22 09:59:05;0.00;0.00;0.62;0.00;0.00;0.62;2.70;2.30;;;24.10;19.50;;;;;;2231765;62;20495;-53
2022/03/22 10:01:50;0.00;0.00;0.62;0.00;0.00;0.62;3.40;2.50;;;24.10;19.50;;;;;;2233978;62;20395;-55
2022/03/22 10:04:40;0.00;0.00;0.62;0.00;0.00;0.62;3.27;2.97;;;24.10;19.50;;;;;;2231460;62;20371;-53
2022/03/22 10:07:27;0.00;0.00;0.62;0.00;0.00;0.62;2.73;2.53;;;24.10;19.50;;;;;;2231778;62;20367;-57
2022/03/22 10:10:15;0.00;0.00;0.62;0.00;0.00;0.62;2.23;1.77;;;24.20;19.60;;;;;;2233898;62;20419;-52
2022/03/22 10:13:03;0.00;0.00;0.62;0.00;0.00;0.62;2.70;2.50;;;24.20;19.60;;;;;;2231564;62;20403;-55
2022/03/22 10:15:47;0.00;0.00;0.62;0.00;0.00;0.62;2.87;2.50;;;24.20;19.60;;;;;;2231247;62;20402;-54
2022/03/22 10:18:35;0.00;0.00;0.62;0.00;0.00;0.62;3.00;2.60;;;24.20;19.60;;;;;;2231257;62;20395;-52
2022/03/22 10:21:20;0.00;0.00;0.62;0.00;0.00;0.62;4.40;2.80;;;24.30;19.70;;;;;;2231612;62;20487;-55
2022/03/22 10:24:05;0.00;0.00;0.62;0.00;0.00;0.62;2.50;2.30;;;24.30;19.70;;;;;;2231765;62;20422;-48
2022/03/22 10:26:51;0.00;0.00;0.62;0.00;0.00;0.62;2.90;2.23;;;24.30;19.70;;;;;;2231309;62;20367;-53
2022/03/22 10:29:41;0.00;0.00;0.62;0.00;0.00;0.62;2.83;2.43;;;24.30;19.70;;;;;;2231395;62;20435;-50
2022/03/22 10:32:34;0.00;0.00;0.62;0.00;0.00;0.62;3.90;2.73;;;24.30;19.70;;;;;;2234488;62;20455;-48
2022/03/22 10:35:22;0.00;0.00;0.62;0.00;0.00;0.62;3.03;2.53;;;24.40;19.80;;;;;;2232308;62;20367;-52
2022/03/22 10:38:09;0.00;0.00;0.62;0.00;0.00;0.62;3.13;2.50;;;24.40;19.80;;;;;;2231836;62;20394;-54
2022/03/22 10:40:53;0.00;0.00;0.62;0.00;0.00;0.62;2.47;2.27;;;24.40;19.80;;;;;;2231788;62;21009;-55
2022/03/22 10:43:39;0.00;0.00;0.62;0.00;0.00;0.62;3.20;2.70;;;24.50;19.90;;;;;;2232427;62;20374;-52
2022/03/22 10:46:27;0.00;0.00;0.62;0.00;0.00;0.62;2.50;2.30;;;24.50;19.90;;;;;;2232399;62;20427;-56
2022/03/22 10:49:15;0.00;0.00;0.62;0.00;0.00;0.62;2.70;2.33;;;24.50;19.90;;;;;;2231905;62;20398;-54
2022/03/22 10:52:00;0.00;0.00;0.62;0.00;0.00;0.62;3.47;2.70;;;24.60;20.00;;;;;;2232017;62;20406;-51
2022/03/22 10:54:45;0.00;0.00;0.62;0.00;0.00;0.62;2.73;2.47;;;24.60;20.00;;;;;;2234500;62;20453;-53
2022/03/22 10:57:32;0.00;0.00;0.62;0.00;0.00;0.62;2.60;2.10;;;24.60;20.00;;;;;;2232215;62;20374;-55
2022/03/22 11:00:20;0.00;0.00;0.62;0.00;0.00;0.62;2.67;2.00;;;24.60;20.00;;;;;;2231732;62;20384;-55
2022/03/22 11:03:06;0.00;0.00;0.62;0.00;0.00;0.62;2.43;2.17;;;24.70;20.00;;;;;;2231839;62;20446;-53
2022/03/22 11:05:53;0.00;0.00;0.62;0.00;0.00;0.62;2.30;2.10;;;24.70;20.10;;;;;;2232292;62;20407;-54
2022/03/22 11:08:40;0.00;0.00;0.62;0.00;0.00;0.62;3.43;2.20;;;24.70;20.00;;;;;;2232216;62;20386;-52
2022/03/22 11:11:25;0.00;0.00;0.62;0.00;0.00;0.62;2.70;2.33;;;24.80;20.10;;;;;;2231367;62;20861;-52
2022/03/22 11:14:13;0.00;0.00;0.62;0.00;0.00;0.62;2.97;2.20;;;24.80;20.10;;;;;;2231822;62;20787;-52
2022/03/22 11:17:00;0.00;0.00;0.62;0.00;0.00;0.62;2.50;2.03;;;24.80;20.20;;;;;;2234429;62;20363;-49
2022/03/22 11:19:48;0.00;0.00;0.62;0.00;0.00;0.62;2.73;2.37;;;24.90;20.20;;;;;;2231773;62;20423;-50
2022/03/22 11:22:32;0.00;0.00;0.62;0.00;0.00;0.62;2.10;1.90;;;24.90;20.20;;;;;;2231580;62;20439;-51
2022/03/22 11:25:22;0.00;0.00;0.62;0.00;0.00;0.62;2.23;1.83;;;25.00;20.30;;;;;;2231994;62;20375;-51
2022/03/22 11:28:10;0.00;0.00;0.62;0.00;0.00;0.62;2.70;2.17;;;25.00;20.30;;;;;;2232180;62;20828;-53